Time;durP1;ratioP1;P1;durP2;ratioP2;P2;SDS_P1;SDS_P2;PMS_P1;PMS_P2;Temp;Humidity;BMP_temperature;BMP_pressure;BME280_temperature;BME280_humidity;BME280_pressure;Samples;Min_cycle;Max_cycle;Signal;HPM_P1;HPM_P2
2022/11/13 00:01:21;;;;;;;12.37;7.50;;;9.40;93.20;;;9.86;61.08;99728.16;4967997;28;115245;-72
2022/11/13 00:03:48;;;;;;;11.07;7.87;;;9.40;93.10;;;9.83;61.24;99727.91;4969135;28;113876;-72
2022/11/13 00:06:17;;;;;;;13.30;8.70;;;9.40;93.10;;;9.82;61.36;99729.84;4969212;28;124047;-71
2022/11/13 00:08:44;;;;;;;12.97;8.70;;;9.40;93.10;;;9.78;61.04;99726.00;4951588;28;122778;-71
2022/11/13 00:11:17;;;;;;;14.10;10.03;;;9.30;93.10;;;9.74;61.30;99720.22;4969100;28;114104;-71
2022/11/13 00:13:47;;;;;;;18.50;9.07;;;9.30;93.10;;;9.69;61.47;99713.91;4967067;28;114209;-72
2022/11/13 00:16:17;;;;;;;14.23;9.93;;;9.50;93.10;;;9.64;61.23;99709.22;4967510;28;123486;-71
2022/11/13 00:18:45;;;;;;;13.00;8.87;;;9.20;93.00;;;9.59;61.37;99712.03;4971799;28;122089;-75
2022/11/13 00:21:22;;;;;;;13.50;9.57;;;9.20;93.10;;;9.57;61.45;99705.16;4972209;28;113671;-77
2022/11/13 00:23:49;;;;;;;15.13;10.47;;;9.10;93.10;;;9.46;61.75;99707.94;4973200;28;113923;-72
2022/11/13 00:26:24;;;;;;;17.03;10.53;;;9.10;93.20;;;9.44;61.79;99712.09;4970074;28;123388;-72
2022/11/13 00:28:56;;;;;;;14.83;9.73;;;9.00;93.20;;;9.40;61.63;99713.75;4964718;28;124465;-72
2022/11/13 00:31:24;;;;;;;18.40;10.80;;;9.00;93.30;;;9.38;61.71;99716.00;4970109;28;114079;-72
2022/11/13 00:33:52;;;;;;;17.07;10.67;;;9.00;93.30;;;9.36;62.01;99704.41;4969937;28;113689;-72
2022/11/13 00:36:26;;;;;;;16.90;10.10;;;9.00;93.30;;;9.31;61.80;99702.50;4969367;28;124159;-72
2022/11/13 00:38:55;;;;;;;15.70;9.70;;;8.90;93.30;;;9.29;61.79;99701.94;4964756;28;123876;-72
2022/11/13 00:41:23;;;;;;;15.30;11.03;;;8.80;93.30;;;9.24;61.99;99697.28;4966159;28;114730;-71
2022/11/13 00:43:50;;;;;;;12.27;8.23;;;8.80;93.30;;;9.23;62.07;99692.88;4969725;28;115279;-72
2022/11/13 00:46:18;;;;;;;14.10;9.17;;;9.00;93.40;;;9.23;62.24;99692.03;4966753;28;123312;-72
2022/11/13 00:48:45;;;;;;;19.63;9.60;;;8.80;93.40;;;9.23;62.06;99690.09;4966739;28;122541;-72
2022/11/13 00:51:12;;;;;;;14.30;10.27;;;8.90;93.40;;;9.21;62.12;99689.56;4967255;28;114610;-72
2022/11/13 00:53:38;;;;;;;15.60;9.70;;;8.80;93.40;;;9.20;62.20;99693.44;4967769;28;114994;-72
2022/11/13 00:56:05;;;;;;;18.97;10.47;;;8.80;93.40;;;9.21;62.11;99678.53;4967223;28;123943;-75
2022/11/13 00:58:31;;;;;;;14.50;9.93;;;8.80;93.40;;;9.19;62.00;99675.25;4965908;28;123581;-72
2022/11/13 01:01:10;;;;;;;13.10;8.37;;;8.90;93.50;;;9.19;61.93;99669.72;4967241;28;113918;-72
2022/11/13 01:03:36;;;;;;;14.17;9.57;;;8.80;93.40;;;9.15;61.72;99668.63;4968321;28;114053;-72
2022/11/13 01:06:23;;;;;;;12.10;8.90;;;8.70;93.40;;;9.18;62.09;99675.53;4986281;28;123443;-72
2022/11/13 01:08:53;;;;;;;15.73;9.90;;;8.80;93.40;;;9.14;61.92;99672.50;4966826;28;124324;-72
2022/11/13 01:11:23;;;;;;;20.80;10.40;;;8.70;93.50;;;9.11;62.01;99661.19;4967005;28;114052;-72
2022/11/13 01:13:51;;;;;;;14.97;10.40;;;8.70;93.40;;;9.09;62.08;99669.75;4969985;28;114078;-72
2022/11/13 01:16:23;;;;;;;16.10;10.23;;;8.70;93.30;;;9.05;61.84;99669.50;4965827;28;123922;-72
2022/11/13 01:18:52;;;;;;;15.27;9.20;;;8.60;93.30;;;9.00;61.94;99663.16;4964908;28;123793;-73
2022/11/13 01:21:24;;;;;;;12.60;8.57;;;8.60;93.30;;;8.94;61.77;99667.06;4968628;28;114576;-72
2022/11/13 01:24:11;;;;;;;13.83;9.30;;;8.50;93.30;;;8.88;62.15;99669.00;4966528;28;114400;-71
2022/11/13 01:26:37;;;;;;;15.67;9.03;;;8.40;93.30;;;8.82;62.11;99659.09;4889961;28;124381;-72
2022/11/13 01:29:05;;;;;;;13.23;8.47;;;8.40;93.40;;;8.75;62.25;99666.81;4897877;28;123813;-72
2022/11/13 01:31:32;;;;;;;16.23;10.53;;;8.30;93.40;;;8.68;62.15;99655.25;4888851;28;114227;-72
2022/11/13 01:33:59;;;;;;;17.90;11.37;;;8.20;93.40;;;8.59;62.37;99650.31;4888362;28;114727;-71
2022/11/13 01:36:27;;;;;;;15.37;8.87;;;8.10;93.50;;;8.44;62.20;99644.03;4867567;28;124015;-72
2022/11/13 01:38:55;;;;;;;15.00;10.00;;;8.00;93.60;;;8.35;62.74;99641.78;4849957;28;122237;-71
2022/11/13 01:41:24;;;;;;;20.40;13.40;;;7.90;93.60;;;8.31;62.79;99640.72;4858113;28;114292;-72
2022/11/13 01:43:52;;;;;;;19.03;12.37;;;7.80;93.70;;;8.24;62.76;99642.91;4883997;28;115050;-72
2022/11/13 01:46:25;;;;;;;18.80;12.03;;;7.70;93.70;;;8.17;63.00;99636.88;4876005;28;123337;-72
2022/11/13 01:49:08;;;;;;;20.07;12.20;;;7.70;93.80;;;8.07;63.22;99632.19;4875840;28;121883;-71
2022/11/13 01:51:49;;;;;;;21.87;12.60;;;7.60;93.80;;;7.96;63.36;99631.34;4889886;28;114518;-72
2022/11/13 01:54:25;;;;;;;19.30;12.00;;;7.50;94.00;;;7.85;63.55;99634.41;4871324;28;113921;-71
2022/11/13 01:56:53;;;;;;;22.90;13.17;;;7.30;94.00;;;7.77;63.90;99627.50;4872155;28;123740;-72
2022/11/13 01:59:25;;;;;;;25.00;14.33;;;7.30;94.10;;;7.75;63.96;99626.94;4874756;28;122743;-71
2022/11/13 02:01:53;;;;;;;19.37;11.67;;;7.30;94.20;;;7.72;64.27;99627.50;4871603;28;114131;-71
2022/11/13 02:04:21;;;;;;;22.53;12.77;;;7.30;94.20;;;7.70;64.16;99618.69;4945991;28;114058;-71
2022/11/13 02:07:00;;;;;;;26.33;14.87;;;7.20;94.50;;;7.69;64.16;99620.63;4968251;28;123444;-71
2022/11/13 02:09:39;;;;;;;18.70;12.10;;;7.20;94.30;;;7.64;64.17;99612.34;4963659;28;123551;-71
2022/11/13 02:12:11;;;;;;;25.23;12.50;;;7.20;94.40;;;7.57;64.55;99616.47;5002488;28;113523;-71
2022/11/13 02:14:46;;;;;;;42.33;13.87;;;7.10;94.50;;;7.44;64.92;99609.56;4972141;28;112975;-73
2022/11/13 02:17:20;;;;;;;27.63;13.67;;;6.90;94.50;;;7.29;65.26;99604.88;4969340;28;122394;-71
2022/11/13 02:19:53;;;;;;;24.07;12.87;;;6.80;94.70;;;7.23;65.56;99605.97;4954751;28;122722;-71
2022/11/13 02:22:44;;;;;;;18.90;11.33;;;6.70;94.80;;;7.22;65.08;99607.03;4963142;28;112993;-71
2022/11/13 02:25:12;;;;;;;18.73;12.23;;;6.70;94.90;;;7.18;65.39;99593.03;4960022;28;113095;-71
2022/11/13 02:27:45;;;;;;;17.10;9.37;;;6.70;94.90;;;7.21;65.60;99591.66;4968905;28;124213;-71
2022/11/13 02:30:27;;;;;;;14.43;9.47;;;6.70;94.90;;;7.26;65.35;99587.00;4963691;28;123867;-71
2022/11/13 02:32:56;;;;;;;17.27;10.83;;;6.80;94.90;;;7.29;65.49;99593.88;4964856;28;115287;-71
2022/11/13 02:35:29;;;;;;;15.70;10.23;;;7.00;95.00;;;7.36;65.31;99586.19;4969807;28;114917;-71
2022/11/13 02:38:00;;;;;;;20.20;11.63;;;6.90;94.90;;;7.41;65.45;99579.88;4972316;28;123999;-71
2022/11/13 02:40:27;;;;;;;17.83;10.37;;;7.00;95.00;;;7.45;65.62;99581.81;4969548;28;123817;-71
2022/11/13 02:42:54;;;;;;;13.93;9.40;;;7.00;94.90;;;7.49;65.41;99574.66;4971593;28;114931;-71
2022/11/13 02:45:21;;;;;;;18.50;11.63;;;7.10;95.00;;;7.48;65.42;99572.19;4969678;28;113831;-71
2022/11/13 02:47:48;;;;;;;15.60;10.83;;;7.00;94.90;;;7.50;65.63;99581.81;4969219;28;123226;-71
2022/11/13 02:50:16;;;;;;;16.87;10.80;;;7.00;95.00;;;7.52;65.70;99581.53;4970311;28;124697;-71
2022/11/13 02:52:43;;;;;;;15.37;9.50;;;7.00;95.00;;;7.49;65.53;99582.06;4971434;28;113583;-72
2022/11/13 02:55:11;;;;;;;18.07;10.70;;;7.00;95.10;;;7.48;65.68;99586.75;4968848;28;114021;-71
2022/11/13 02:57:37;;;;;;;16.73;11.70;;;7.00;95.10;;;7.45;65.39;99570.00;4967495;28;124020;-71
2022/11/13 03:00:05;;;;;;;17.17;11.23;;;7.00;95.20;;;7.40;65.49;99576.28;4969540;28;123892;-71
2022/11/13 03:02:31;;;;;;;14.50;9.77;;;6.90;95.20;;;7.41;66.14;99571.63;4971258;28;114219;-71
2022/11/13 03:04:58;;;;;;;15.50;9.37;;;6.90;95.30;;;7.42;65.97;99570.53;4968004;28;114036;-71
2022/11/13 03:07:24;;;;;;;13.47;9.60;;;7.00;95.40;;;7.43;65.98;99566.69;4968881;28;124185;-71
2022/11/13 03:09:51;;;;;;;15.90;9.70;;;7.10;95.50;;;7.46;66.16;99566.94;4983995;28;122784;-71
2022/11/13 03:12:17;;;;;;;14.03;9.00;;;7.00;95.40;;;7.48;65.89;99559.25;4968315;28;114041;-71
2022/11/13 03:14:44;;;;;;;10.87;7.87;;;7.00;95.40;;;7.52;65.92;99560.38;4969435;28;113970;-71
2022/11/13 03:17:10;;;;;;;13.13;8.57;;;7.00;95.40;;;7.55;65.78;99559.00;4969390;28;124022;-71
2022/11/13 03:19:37;;;;;;;14.00;9.30;;;7.10;95.40;;;7.56;65.71;99554.31;4969248;28;123679;-72
2022/11/13 03:22:03;;;;;;;12.50;8.13;;;7.10;95.30;;;7.56;65.36;99560.66;4968669;28;115128;-71
2022/11/13 03:24:30;;;;;;;14.80;8.97;;;7.10;95.20;;;7.57;65.69;99551.28;4963466;28;115056;-71
2022/11/13 03:26:56;;;;;;;14.30;10.00;;;7.10;95.20;;;7.58;65.42;99552.13;4969178;28;124393;-71
2022/11/13 03:29:23;;;;;;;13.30;8.70;;;7.10;95.20;;;7.60;65.26;99555.41;4970166;28;123787;-72
2022/11/13 03:31:49;;;;;;;14.20;8.73;;;7.10;95.10;;;7.62;65.36;99553.22;4968647;28;114153;-71
2022/11/13 03:34:16;;;;;;;15.33;10.30;;;7.10;95.10;;;7.61;65.13;99560.66;4971574;28;114010;-71
2022/11/13 03:36:43;;;;;;;12.20;8.53;;;7.20;95.10;;;7.60;64.85;99558.16;4971856;28;123530;-71
2022/11/13 03:39:09;;;;;;;10.13;7.33;;;7.10;95.00;;;7.61;64.78;99557.09;5000408;28;123756;-71
2022/11/13 03:41:36;;;;;;;12.30;8.70;;;7.20;95.00;;;7.62;65.12;99553.22;4971312;28;114067;-71
2022/11/13 03:44:03;;;;;;;11.80;7.17;;;7.20;94.90;;;7.62;65.10;99559.53;5001174;28;113857;-71
2022/11/13 03:46:29;;;;;;;10.90;8.07;;;7.20;94.90;;;7.63;64.85;99554.84;4969671;28;123354;-71
2022/11/13 03:48:56;;;;;;;11.77;8.13;;;7.30;94.90;;;7.64;64.77;99557.34;4968673;28;123706;-71
2022/11/13 03:51:22;;;;;;;12.53;7.23;;;7.20;94.80;;;7.67;64.27;99548.53;4969584;28;114223;-71
2022/11/13 03:53:49;;;;;;;8.97;7.07;;;7.20;94.80;;;7.68;64.58;99563.97;4971675;28;114322;-71
2022/11/13 03:56:16;;;;;;;15.80;8.60;;;7.20;94.70;;;7.70;64.29;99558.16;4978979;28;123763;-71
2022/11/13 03:58:43;;;;;;;11.97;8.67;;;7.20;94.70;;;7.70;64.20;99561.75;4970660;28;126139;-71
2022/11/13 04:01:10;;;;;;;11.30;8.33;;;7.20;94.60;;;7.67;64.29;99555.97;4987576;28;113764;-71
2022/11/13 04:03:36;;;;;;;11.50;7.60;;;7.20;94.60;;;7.65;64.22;99553.50;4968395;28;114235;-71
2022/11/13 04:06:03;;;;;;;12.30;7.33;;;7.20;94.50;;;7.62;63.70;99553.22;4969125;28;123941;-71
2022/11/13 04:08:29;;;;;;;13.30;8.83;;;7.10;94.40;;;7.58;63.86;99554.88;4967015;28;124048;-71
2022/11/13 04:11:06;;;;;;;10.37;7.80;;;7.10;94.40;;;7.53;63.87;99541.94;4968329;28;115051;-71
2022/11/13 04:13:33;;;;;;;12.97;8.90;;;7.00;94.40;;;7.51;63.83;99539.47;4968130;28;114244;-73
2022/11/13 04:15:59;;;;;;;15.83;8.17;;;7.10;94.70;;;7.53;64.23;99544.69;4968703;28;124260;-71
2022/11/13 04:18:26;;;;;;;12.37;8.00;;;7.10;94.50;;;7.56;63.92;99537.81;4966873;28;124521;-72
2022/11/13 04:20:59;;;;;;;12.70;7.47;;;7.10;94.50;;;7.58;63.96;99541.94;4977142;28;114409;-73
2022/11/13 04:23:26;;;;;;;10.27;7.90;;;7.10;94.50;;;7.60;64.00;99544.41;4973052;28;114061;-72
2022/11/13 04:29:35;;;;;;;12.90;8.40;;;7.20;94.50;;;7.58;64.04;99530.97;4972452;28;124375;-71
2022/11/13 04:32:01;;;;;;;13.40;9.17;;;7.70;94.60;;;7.56;64.16;99522.16;4953892;28;114486;-71
2022/11/13 04:34:28;;;;;;;12.13;8.33;;;7.10;94.40;;;7.58;63.66;99522.69;4968193;28;114114;-71
2022/11/13 04:36:56;;;;;;;13.83;8.20;;;7.10;94.40;;;7.60;63.97;99522.41;4965388;28;123978;-71
2022/11/13 04:39:22;;;;;;;10.87;7.20;;;7.10;94.40;;;7.59;63.82;99518.84;4967590;28;124185;-71
2022/11/13 04:44:34;;;;;;;12.50;8.63;;;7.10;94.40;;;7.59;63.94;99507.03;4975036;28;114533;-71
2022/11/13 04:47:00;;;;;;;10.50;7.70;;;7.10;94.40;;;7.61;63.95;99502.09;4968493;28;123807;-71
2022/11/13 04:49:27;;;;;;;12.13;8.40;;;7.10;94.40;;;7.62;64.04;99512.78;4967642;28;124680;-72
2022/11/13 04:51:53;;;;;;;11.63;8.67;;;7.10;94.40;;;7.64;64.05;99507.03;4967120;28;114690;-71
2022/11/13 04:54:20;;;;;;;12.10;7.70;;;7.10;94.40;;;7.65;63.98;99503.16;4967993;28;113547;-71
2022/11/13 04:56:46;;;;;;;10.27;7.70;;;7.20;94.50;;;7.66;64.23;99508.41;4974549;28;124044;-71
2022/11/13 04:59:13;;;;;;;10.60;7.07;;;7.20;94.50;;;7.68;63.99;99499.84;4968162;28;123288;-71
2022/11/13 05:01:39;;;;;;;12.53;7.87;;;7.20;94.50;;;7.69;63.94;99499.59;4967275;28;115143;-71
2022/11/13 05:04:06;;;;;;;17.03;9.50;;;7.20;94.50;;;7.70;63.91;99494.91;4999262;28;114995;-71
2022/11/13 05:06:32;;;;;;;16.97;9.20;;;7.20;94.40;;;7.64;63.61;99494.09;4967352;28;123881;-72
2022/11/13 05:08:59;;;;;;;15.77;9.80;;;7.10;94.40;;;7.59;63.88;99493.28;4968376;28;122891;-71
2022/11/13 05:11:25;;;;;;;12.33;8.50;;;7.10;94.50;;;7.48;63.81;99485.03;4967312;28;113971;-71
2022/11/13 05:13:52;;;;;;;12.00;8.10;;;7.00;94.50;;;7.45;64.25;99482.81;4966609;28;113291;-71
2022/11/13 05:16:18;;;;;;;14.87;8.10;;;7.00;94.60;;;7.47;64.34;99480.63;4967073;28;124028;-71
2022/11/13 05:18:45;;;;;;;11.60;7.00;;;7.00;94.60;;;7.49;64.65;99481.16;4969079;28;123756;-72
2022/11/13 05:21:13;;;;;;;12.50;9.00;;;7.00;94.60;;;7.52;64.58;99474.28;4983474;28;113104;-71
2022/11/13 05:23:39;;;;;;;13.50;8.57;;;7.00;94.70;;;7.53;64.15;99475.97;4962248;28;113888;-71
2022/11/13 05:26:10;;;;;;;12.03;8.83;;;7.00;94.60;;;7.49;64.33;99478.41;4965713;28;124451;-71
2022/11/13 05:28:38;;;;;;;13.80;8.07;;;7.10;94.70;;;7.45;64.63;99477.31;4966494;28;123813;-72
2022/11/13 05:31:14;;;;;;;12.53;8.47;;;7.00;94.70;;;7.45;64.53;99471.00;4949989;28;114272;-71
2022/11/13 05:33:41;;;;;;;10.90;7.50;;;7.00;94.70;;;7.43;64.66;99485.03;4968749;28;113925;-72
2022/11/13 05:36:11;;;;;;;11.73;7.90;;;7.00;94.70;;;7.45;64.55;99466.34;4970651;28;123928;-72
2022/11/13 05:38:39;;;;;;;11.07;7.73;;;7.00;94.70;;;7.47;64.20;99469.63;4965735;28;123726;-71
2022/11/13 05:41:09;;;;;;;11.10;8.50;;;7.00;94.70;;;7.47;64.57;99469.63;4969394;28;114342;-72
2022/11/13 05:43:36;;;;;;;12.17;8.67;;;7.00;94.70;;;7.47;64.48;99469.63;4968944;28;113868;-72
2022/11/13 05:46:07;;;;;;;10.87;6.87;;;7.00;94.70;;;7.46;64.57;99465.22;4966082;28;123692;-72
2022/11/13 05:48:54;;;;;;;10.67;7.03;;;7.00;94.70;;;7.45;64.60;99469.09;4968643;28;123727;-72
2022/11/13 05:51:31;;;;;;;14.50;7.47;;;7.00;94.70;;;7.47;64.31;99474.31;4912469;28;115187;-72
2022/11/13 05:53:59;;;;;;;9.27;6.63;;;7.00;94.70;;;7.47;64.33;99468.81;4896413;28;114212;-72
2022/11/13 05:56:33;;;;;;;9.53;6.90;;;7.00;94.70;;;7.47;64.38;99464.13;4896021;28;123978;-72
2022/11/13 05:59:01;;;;;;;11.23;6.97;;;7.00;94.60;;;7.44;64.07;99461.94;4878859;28;123785;-72
2022/11/13 06:01:35;;;;;;;11.00;7.17;;;7.00;94.60;;;7.43;64.73;99474.03;4909761;28;114301;-72
2022/11/13 06:04:03;;;;;;;12.03;8.73;;;7.00;94.60;;;7.40;64.04;99471.81;4910975;28;114125;-72
2022/11/13 06:06:32;;;;;;;17.30;8.10;;;7.00;94.60;;;7.37;64.26;99466.06;4909230;28;123982;-72
2022/11/13 06:09:01;;;;;;;11.60;7.70;;;7.00;94.70;;;7.35;64.75;99473.75;4912437;28;124291;-72
2022/11/13 06:11:29;;;;;;;12.47;7.30;;;6.90;94.70;;;7.34;64.36;99475.69;4909561;28;114182;-72
2022/11/13 06:13:57;;;;;;;10.73;7.03;;;7.00;94.70;;;7.33;64.35;99473.19;4912899;28;113983;-72
2022/11/13 06:16:29;;;;;;;9.17;6.83;;;6.90;94.70;;;7.27;64.48;99466.88;4910824;28;123929;-72
2022/11/13 06:19:00;;;;;;;9.70;6.50;;;6.80;94.60;;;7.21;64.57;99467.97;4907835;28;123946;-73
2022/11/13 06:21:45;;;;;;;11.10;6.10;;;6.70;94.60;;;7.18;64.41;99469.34;4912688;28;113328;-72
2022/11/13 06:24:12;;;;;;;9.00;7.20;;;6.70;94.60;;;7.17;64.58;99477.84;4913607;28;114357;-74
2022/11/13 06:26:39;;;;;;;10.37;6.70;;;6.70;94.60;;;7.15;64.16;99463.59;4899533;28;123872;-73
2022/11/13 06:29:09;;;;;;;8.00;5.60;;;6.70;94.60;;;7.15;64.47;99469.09;4956345;28;123584;-72
2022/11/13 06:31:36;;;;;;;11.57;7.60;;;6.70;94.60;;;7.14;64.48;99456.44;4970169;28;114237;-72
2022/11/13 06:34:04;;;;;;;10.67;7.43;;;6.70;94.90;;;7.10;64.36;99463.59;4969835;28;113952;-72
2022/11/13 06:36:34;;;;;;;7.13;5.17;;;6.70;94.40;;;6.99;64.16;99452.56;4968817;28;124494;-71
2022/11/13 06:39:05;;;;;;;7.50;5.63;;;6.50;94.40;;;6.98;64.43;99459.16;4984717;28;123401;-72
2022/11/13 06:41:31;;;;;;;9.23;6.00;;;6.50;94.40;;;6.99;64.29;99458.06;4967476;28;114637;-72
2022/11/13 06:43:59;;;;;;;9.30;5.73;;;6.50;94.50;;;7.01;63.99;99450.38;4969277;28;114913;-72
2022/11/13 06:46:28;;;;;;;6.30;5.10;;;6.50;94.50;;;7.03;64.07;99442.66;5001470;28;125197;-72
2022/11/13 06:48:55;;;;;;;6.67;4.83;;;6.50;94.40;;;7.06;63.69;99441.31;4970884;28;123634;-72
2022/11/13 06:51:25;;;;;;;6.80;5.77;;;6.60;94.40;;;7.05;64.03;99440.47;4969956;28;114370;-73
2022/11/13 06:53:52;;;;;;;7.73;5.17;;;6.60;94.40;;;7.05;63.98;99445.97;4962145;28;113183;-71
2022/11/13 06:56:19;;;;;;;7.43;5.53;;;6.60;94.30;;;7.06;63.68;99442.13;4984564;28;124101;-71
2022/11/13 06:58:46;;;;;;;6.80;5.50;;;6.60;94.30;;;7.04;63.78;99438.84;4965963;28;123624;-72
2022/11/13 07:01:16;;;;;;;8.93;6.20;;;6.60;94.20;;;7.03;63.45;99437.19;4980000;28;113882;-71
2022/11/13 07:03:43;;;;;;;5.80;4.80;;;6.60;94.20;;;7.05;63.71;99440.47;4967858;28;113826;-71
2022/11/13 07:06:13;;;;;;;7.57;5.40;;;6.60;94.10;;;7.07;63.41;99437.47;4963171;28;123924;-72
2022/11/13 07:08:44;;;;;;;9.70;5.70;;;6.60;94.10;;;7.04;63.37;99433.34;4945650;28;123258;-71
2022/11/13 07:11:14;;;;;;;5.40;4.60;;;6.60;94.00;;;7.02;63.36;99426.47;4998647;28;114251;-71
2022/11/13 07:13:42;;;;;;;6.60;5.53;;;6.50;93.90;;;7.00;63.13;99424.00;4968216;28;113786;-71
2022/11/13 07:16:10;;;;;;;7.40;5.47;;;6.60;93.90;;;6.97;63.30;99421.78;4968988;28;124321;-71
2022/11/13 07:18:36;;;;;;;5.50;4.93;;;6.50;93.80;;;6.95;62.92;99414.91;5000319;28;123796;-71
2022/11/13 07:21:07;;;;;;;10.70;7.20;;;6.50;93.80;;;6.92;62.78;99423.72;4970490;28;114258;-71
2022/11/13 07:23:41;;;;;;;8.03;6.03;;;6.40;93.70;;;6.83;62.38;99421.50;5004316;28;113953;-71
2022/11/13 07:26:10;;;;;;;6.43;5.50;;;6.30;93.60;;;6.75;63.05;99418.47;4968875;28;124018;-71
2022/11/13 07:28:37;;;;;;;6.03;4.87;;;6.20;93.60;;;6.71;62.95;99420.94;5000976;28;123692;-71
2022/11/13 07:31:04;;;;;;;7.03;4.80;;;6.20;93.60;;;6.68;63.02;99423.41;4964511;28;115187;-71
2022/11/13 07:33:30;;;;;;;9.10;5.90;;;6.20;93.60;;;6.68;62.73;99418.72;4962152;28;114890;-71
2022/11/13 07:35:58;;;;;;;7.83;5.60;;;6.20;93.70;;;6.68;62.71;99409.66;4968271;28;124013;-71
2022/11/13 07:38:25;;;;;;;6.93;5.67;;;6.20;93.60;;;6.66;62.69;99414.59;4968319;28;123813;-71
2022/11/13 07:40:51;;;;;;;6.00;5.30;;;6.10;93.60;;;6.62;62.52;99409.66;5002096;28;114011;-71
2022/11/13 07:43:19;;;;;;;5.60;4.70;;;6.10;93.60;;;6.63;62.67;99416.78;4971676;28;113885;-71
2022/11/13 07:45:45;;;;;;;7.73;5.27;;;6.10;93.60;;;6.64;63.00;99407.47;4963284;28;123938;-71
2022/11/13 07:48:12;;;;;;;7.60;5.57;;;6.20;93.60;;;6.62;62.66;99398.69;4971214;28;124137;-71
2022/11/13 07:50:39;;;;;;;6.20;5.30;;;6.10;93.60;;;6.63;62.52;99394.81;4968420;28;114138;-71
2022/11/13 07:53:07;;;;;;;6.57;5.23;;;6.20;93.60;;;6.61;62.57;99388.81;4961955;28;113969;-72
2022/11/13 07:55:35;;;;;;;5.27;4.77;;;6.10;93.50;;;6.56;62.74;99393.47;4964936;28;124473;-71
2022/11/13 07:58:03;;;;;;;5.70;5.07;;;6.10;93.60;;;6.56;63.43;99391.53;4967615;28;123745;-72
2022/11/13 08:00:32;;;;;;;7.23;5.77;;;6.10;93.70;;;6.61;63.90;99385.25;4967724;28;114502;-71
2022/11/13 08:03:10;;;;;;;5.60;5.00;;;6.20;94.00;;;6.70;63.69;99388.25;4979921;28;114586;-71
2022/11/13 08:05:38;;;;;;;6.40;4.67;;;6.20;94.20;;;6.74;63.80;99392.09;4967084;28;123807;-71
2022/11/13 08:08:06;;;;;;;8.80;5.90;;;6.20;94.10;;;6.77;63.25;99383.31;4966965;28;123740;-71
2022/11/13 08:10:32;;;;;;;11.03;5.90;;;6.60;94.20;;;6.77;63.04;99384.16;4963757;28;114124;-71
2022/11/13 08:13:06;;;;;;;7.53;5.73;;;6.20;93.90;;;6.74;63.37;99387.41;4965818;28;113981;-71
2022/11/13 08:15:33;;;;;;;7.40;4.93;;;6.30;93.90;;;6.69;63.11;99386.59;5002668;28;123093;-71
2022/11/13 08:18:02;;;;;;;7.03;5.70;;;6.20;93.70;;;6.66;62.99;99381.66;4959435;28;123606;-71
2022/11/13 08:20:30;;;;;;;8.30;6.10;;;6.10;93.80;;;6.58;62.56;99375.63;5000177;28;115220;-71
2022/11/13 08:22:59;;;;;;;7.97;6.00;;;6.00;93.70;;;6.56;63.21;99377.00;4983633;28;114082;-71
2022/11/13 08:25:28;;;;;;;6.57;5.10;;;6.00;93.80;;;6.54;63.26;99379.19;4966178;28;123822;-71
2022/11/13 08:27:55;;;;;;;7.20;5.13;;;6.00;93.80;;;6.58;62.81;99375.63;4983449;28;122019;-71
2022/11/13 08:30:24;;;;;;;5.73;4.70;;;6.00;93.90;;;6.63;63.23;99375.59;4999951;28;114226;-71
2022/11/13 08:32:51;;;;;;;7.60;5.83;;;6.10;93.90;;;6.68;62.96;99369.31;4967286;28;113685;-71
2022/11/13 08:35:18;;;;;;;7.37;5.63;;;6.10;93.90;;;6.71;63.35;99355.03;4968091;28;124014;-71
2022/11/13 08:37:45;;;;;;;6.87;5.27;;;6.10;93.90;;;6.74;63.46;99361.88;4968685;28;122662;-71
2022/11/13 08:40:11;;;;;;;10.23;7.17;;;6.20;93.90;;;6.78;63.25;99352.03;4967552;28;113342;-71
2022/11/13 08:42:38;;;;;;;9.50;6.30;;;6.20;93.90;;;6.82;62.68;99353.09;4967833;28;114408;-71
2022/11/13 08:45:06;;;;;;;8.63;6.83;;;6.30;93.90;;;6.84;63.18;99342.69;4998649;28;124037;-71
2022/11/13 08:47:32;;;;;;;10.80;4.90;;;6.30;93.90;;;6.84;63.04;99348.16;4970462;28;124059;-71
2022/11/13 08:49:59;;;;;;;8.40;6.27;;;6.20;93.80;;;6.84;62.90;99353.66;4994898;28;114208;-71
2022/11/13 08:52:25;;;;;;;7.30;6.00;;;5.70;93.60;;;6.87;62.99;99344.88;4952779;28;115274;-71
2022/11/13 08:54:53;;;;;;;8.40;5.90;;;6.80;94.10;;;6.91;63.06;99345.16;4985595;28;124117;-71
2022/11/13 08:57:19;;;;;;;8.03;5.93;;;6.30;93.90;;;6.95;63.14;99341.56;4993730;28;123873;-72
2022/11/13 08:59:46;;;;;;;7.30;5.73;;;6.40;93.90;;;7.00;62.66;99349.00;4954107;28;114340;-71
2022/11/13 09:02:14;;;;;;;6.80;5.50;;;6.40;93.90;;;7.05;62.94;99341.56;4959795;28;113787;-72
2022/11/13 09:04:41;;;;;;;6.43;5.23;;;6.50;93.80;;;7.08;62.75;99341.00;4950726;28;123001;-72
2022/11/13 09:07:08;;;;;;;8.90;6.13;;;6.50;93.80;;;7.06;62.27;99345.94;4954284;28;123529;-71
2022/11/13 09:09:34;;;;;;;7.50;5.60;;;6.50;93.70;;;7.06;62.36;99343.22;4964194;28;115121;-72
2022/11/13 09:12:01;;;;;;;7.93;6.60;;;6.50;93.70;;;7.11;62.33;99344.31;4955444;28;114755;-71
2022/11/13 09:14:27;;;;;;;9.60;6.80;;;6.50;93.70;;;7.13;62.46;99336.63;4956356;28;123759;-74
2022/11/13 09:16:54;;;;;;;7.77;5.90;;;6.60;93.80;;;7.17;62.30;99333.03;4965522;28;123903;-73
2022/11/13 09:19:20;;;;;;;7.97;5.47;;;6.50;93.80;;;7.20;62.49;99342.66;4967435;28;114104;-73
2022/11/13 09:21:47;;;;;;;11.60;6.97;;;6.60;93.80;;;7.21;62.26;99339.63;4965981;28;114036;-74
2022/11/13 09:24:13;;;;;;;10.90;6.33;;;6.60;93.80;;;7.28;63.54;99344.84;4966747;28;124026;-75
2022/11/13 09:26:40;;;;;;;7.50;6.03;;;6.70;94.50;;;7.45;65.14;99331.63;4981502;28;123224;-73
2022/11/13 09:29:06;;;;;;;6.50;5.50;;;6.80;95.40;;;7.63;65.16;99335.69;4953347;28;114351;-73
2022/11/13 09:31:33;;;;;;;8.47;5.77;;;6.90;95.60;;;7.81;66.09;99336.19;4952392;28;114044;-73
2022/11/13 09:33:59;;;;;;;8.87;6.57;;;7.10;96.20;;;8.02;66.33;99329.47;4988905;28;123951;-72
2022/11/13 09:36:26;;;;;;;7.60;6.43;;;7.30;96.50;;;8.15;65.44;99317.03;4953031;28;124171;-73
2022/11/13 09:38:52;;;;;;;9.17;6.30;;;7.40;96.10;;;8.19;64.62;99313.44;4967128;28;114118;-72
2022/11/13 09:41:25;;;;;;;6.87;5.70;;;7.40;95.60;;;8.21;64.34;99312.31;4986481;28;113595;-72
2022/11/13 09:43:54;;;;;;;9.70;6.00;;;7.50;95.40;;;8.28;64.92;99308.16;4967087;28;123625;-73
2022/11/13 09:46:36;;;;;;;7.37;6.60;;;7.60;95.70;;;8.45;64.94;99315.25;4977312;28;122939;-73
2022/11/13 09:49:26;;;;;;;6.60;5.60;;;7.70;95.90;;;8.59;65.34;99302.47;4956036;28;114011;-73
2022/11/13 09:51:56;;;;;;;6.23;5.60;;;7.80;95.90;;;8.76;65.08;99308.41;4998314;28;113990;-73
2022/11/13 09:54:23;;;;;;;6.60;5.83;;;8.00;96.00;;;8.90;64.10;99316.00;4963760;28;123020;-73
2022/11/13 09:57:02;;;;;;;8.30;6.20;;;8.40;95.80;;;8.95;63.17;99310.44;4962190;28;123802;-75
2022/11/13 10:00:05;;;;;;;7.93;6.20;;;8.20;95.40;;;9.01;63.02;99310.09;4967002;28;113561;-73
2022/11/13 10:03:04;;;;;;;7.33;5.40;;;8.20;95.10;;;9.11;62.97;99320.22;4958240;28;114694;-73
2022/11/13 10:06:19;;;;;;;7.53;5.93;;;8.30;95.10;;;9.19;62.29;99300.28;4957675;28;124199;-73
2022/11/13 10:08:54;;;;;;;7.57;6.00;;;8.40;94.70;;;9.27;62.06;99302.41;4961794;28;123742;-72
2022/11/13 10:11:39;;;;;;;7.60;6.03;;;8.50;94.60;;;9.36;61.55;99299.03;4954480;28;114169;-73
2022/11/13 10:14:23;;;;;;;6.90;5.87;;;8.60;94.60;;;9.41;61.66;99307.25;4985682;28;114134;-72
2022/11/13 10:17:34;;;;;;;7.40;6.03;;;8.60;94.40;;;9.58;61.68;99301.25;4952782;28;124423;-72
2022/11/13 10:20:40;;;;;;;10.60;6.50;;;8.80;94.60;;;9.72;61.59;99296.66;4960645;28;124843;-73
2022/11/13 10:23:39;;;;;;;6.90;5.83;;;8.90;94.30;;;9.85;60.96;99289.59;4942551;28;113150;-73
2022/11/13 10:26:19;;;;;;;9.57;6.10;;;9.10;94.20;;;9.98;61.46;99286.13;4967671;28;113957;-73
2022/11/13 10:28:47;;;;;;;6.50;5.50;;;9.20;94.30;;;10.16;61.19;99279.00;4953858;28;123992;-73
2022/11/13 10:31:13;;;;;;;6.67;5.87;;;9.30;94.30;;;10.32;60.67;99263.06;4950654;28;124309;-73
2022/11/13 10:33:40;;;;;;;8.63;6.33;;;9.50;94.10;;;10.49;60.04;99279.91;4967785;28;113671;-75
2022/11/13 10:36:33;;;;;;;8.47;6.40;;;9.70;93.90;;;10.59;59.87;99276.16;4952259;28;113838;-74
2022/11/13 10:39:05;;;;;;;10.90;6.23;;;9.80;93.70;;;10.65;59.29;99257.56;4957235;28;124107;-74